Time;durP1;ratioP1;P1;durP2;ratioP2;P2;SDS_P1;SDS_P2;PMS_P1;PMS_P2;Temp;Humidity;BMP_temperature;BMP_pressure;BME280_temperature;BME280_humidity;BME280_pressure;Samples;Min_cycle;Max_cycle;Signal;HPM_P1;HPM_P2
2021/12/16 00:08:30;;;;;;;6.18;3.40;;;0.50;99.90;;;;;;5028683;28;20025;-78
2021/12/16 00:35:41;;;;;;;6.82;3.85;;;0.30;99.90;;;;;;5038361;28;20089;-79
2021/12/16 00:38:08;;;;;;;7.63;4.32;;;0.30;99.90;;;;;;5032323;28;20030;-78
2021/12/16 00:40:33;;;;;;;8.65;4.63;;;0.30;99.90;;;;;;5055017;23;20128;-72
2021/12/16 00:43:12;;;;;;;6.85;4.13;;;0.30;99.90;;;;;;5073045;28;20119;-74
2021/12/16 00:45:45;;;;;;;8.73;4.03;;;0.40;99.90;;;;;;5073133;28;20031;-72
2021/12/16 00:56:04;;;;;;;8.57;4.43;;;0.50;99.90;;;;;;5069219;28;20039;-72
2021/12/16 00:58:39;;;;;;;7.05;3.80;;;0.50;99.90;;;;;;5061791;28;20024;-73
2021/12/16 01:01:26;;;;;;;6.95;3.85;;;0.50;99.90;;;;;;5065312;28;20031;-72
2021/12/16 01:34:11;;;;;;;9.88;4.63;;;0.30;99.90;;;;;;5055018;28;20055;-72
2021/12/16 01:50:41;;;;;;;22.90;11.10;;;0.40;99.90;;;;;;5073774;28;20104;-72
2021/12/16 01:55:59;;;;;;;12.60;6.47;;;0.30;99.90;;;;;;5071959;28;20086;-72
2021/12/16 01:58:29;;;;;;;10.90;5.20;;;0.30;99.90;;;;;;5055383;28;20021;-72
2021/12/16 02:01:37;;;;;;;8.80;4.78;;;0.40;99.90;;;;;;5052805;28;20495;-73
2021/12/16 02:03:57;;;;;;;8.60;4.07;;;0.40;99.90;;;;;;5063952;28;20116;-72
2021/12/16 02:09:06;;;;;;;6.28;3.50;;;0.40;99.90;;;;;;5053129;28;20035;-71
2021/12/16 02:11:59;;;;;;;8.20;4.10;;;0.30;99.90;;;;;;5052553;28;20029;-71
2021/12/16 02:36:16;;;;;;;9.05;5.45;;;0.50;99.90;;;;;;5056945;28;20025;-71
2021/12/16 02:38:45;;;;;;;;;;;0.50;99.90;;;;;;5060347;28;20068;-72
2021/12/16 02:41:11;;;;;;;9.88;4.78;;;0.50;99.90;;;;;;5061416;28;19998;-72
2021/12/16 02:43:56;;;;;;;10.88;4.95;;;0.50;99.90;;;;;;5055377;28;20104;-72
2021/12/16 02:49:06;;;;;;;7.97;5.00;;;0.40;99.90;;;;;;5056834;28;20035;-72
2021/12/16 02:51:32;;;;;;;10.27;5.97;;;0.40;99.90;;;;;;5055608;28;20450;-70
2021/12/16 02:54:02;;;;;;;12.45;5.80;;;0.50;99.90;;;;;;5074407;28;20033;-71
2021/12/16 02:56:31;;;;;;;13.15;6.25;;;0.40;99.90;;;;;;5066084;28;20024;-72
2021/12/16 02:58:58;;;;;;;12.45;6.93;;;0.40;99.90;;;;;;5072057;28;20031;-71
2021/12/16 03:01:34;;;;;;;12.90;5.78;;;0.40;99.90;;;;;;5067894;28;20029;-73
2021/12/16 03:04:01;;;;;;;11.23;5.32;;;0.40;99.90;;;;;;5072680;28;20024;-70
2021/12/16 03:06:30;;;;;;;11.32;5.97;;;0.30;99.90;;;;;;5071742;28;20111;-71
2021/12/16 03:08:57;;;;;;;14.27;6.50;;;0.30;99.90;;;;;;5072642;28;20028;-71
2021/12/16 03:16:25;;;;;;;10.65;5.75;;;0.30;99.90;;;;;;5073470;28;20108;-73
2021/12/16 03:19:08;;;;;;;8.30;4.63;;;0.30;99.90;;;;;;5055061;28;20111;-72
2021/12/16 03:21:40;;;;;;;11.65;6.03;;;0.30;99.90;;;;;;5058828;28;20017;-72
2021/12/16 03:35:26;;;;;;;9.25;6.05;;;0.30;99.90;;;;;;5073384;28;20145;-73
2021/12/16 03:37:21;;;;;;;16.70;8.95;;;0.30;99.90;;;;;;5050386;28;20033;-72
2021/12/16 03:39:50;;;;;;;16.67;8.60;;;0.30;99.90;;;;;;5060808;28;20082;-74
2021/12/16 03:42:35;;;;;;;15.05;7.43;;;0.30;99.90;;;;;;5068977;28;20029;-73
2021/12/16 03:48:09;;;;;;;12.45;6.72;;;0.30;99.90;;;;;;5055601;28;20400;-73
2021/12/16 03:50:35;;;;;;;14.95;7.18;;;0.30;99.90;;;;;;5056371;28;20382;-73
2021/12/16 03:53:03;;;;;;;12.45;5.72;;;0.30;99.90;;;;;;5054435;28;20025;-72
2021/12/16 03:55:28;;;;;;;10.05;5.82;;;0.40;99.90;;;;;;5065261;28;20035;-72
2021/12/16 03:57:54;;;;;;;11.40;5.35;;;0.40;99.90;;;;;;5070805;28;20502;-72
2021/12/16 04:00:26;;;;;;;8.38;4.75;;;0.40;99.90;;;;;;5071158;28;20077;-72
2021/12/16 04:02:52;;;;;;;10.18;5.05;;;0.40;99.90;;;;;;5066634;28;20036;-72
2021/12/16 04:05:21;;;;;;;10.05;5.38;;;0.40;99.90;;;;;;5057496;28;20031;-72
2021/12/16 04:07:48;;;;;;;8.55;5.00;;;0.40;99.90;;;;;;5073204;28;20029;-71
2021/12/16 04:10:31;;;;;;;9.77;5.13;;;0.40;99.90;;;;;;5064813;28;20036;-72
2021/12/16 04:12:59;;;;;;;9.13;4.78;;;0.40;99.90;;;;;;5068460;28;20021;-72
2021/12/16 04:15:25;;;;;;;8.82;4.70;;;0.40;99.90;;;;;;5056613;28;20029;-72
2021/12/16 04:17:51;;;;;;;11.48;5.30;;;0.50;99.90;;;;;;5055918;28;20017;-73
2021/12/16 04:20:17;;;;;;;9.95;5.70;;;0.50;99.90;;;;;;5058146;28;20032;-72
2021/12/16 04:22:45;;;;;;;11.05;5.63;;;0.50;99.90;;;;;;5069672;28;20422;-73
2021/12/16 04:25:17;;;;;;;10.32;5.13;;;0.50;99.90;;;;;;5071654;28;20454;-73
2021/12/16 04:27:44;;;;;;;9.52;4.75;;;0.40;99.90;;;;;;5072462;28;20050;-72
2021/12/16 04:30:13;;;;;;;10.00;5.55;;;0.40;99.90;;;;;;5058487;28;20037;-72
2021/12/16 04:32:39;;;;;;;11.40;5.85;;;0.40;99.90;;;;;;5059441;28;20100;-72
2021/12/16 04:35:06;;;;;;;9.32;4.88;;;0.40;99.90;;;;;;5067291;28;20068;-72
2021/12/16 04:37:32;;;;;;;9.90;4.70;;;0.30;99.90;;;;;;5055104;28;20052;-73
2021/12/16 04:39:59;;;;;;;10.13;5.15;;;0.30;99.90;;;;;;5054058;28;20037;-73
2021/12/16 04:42:26;;;;;;;12.13;5.13;;;0.30;99.90;;;;;;5055959;28;20028;-72
2021/12/16 04:44:52;;;;;;;10.43;5.32;;;0.20;99.90;;;;;;5054858;28;20040;-72
2021/12/16 04:47:18;;;;;;;11.10;5.22;;;0.20;99.90;;;;;;5072127;28;20020;-73
2021/12/16 04:49:44;;;;;;;9.90;5.00;;;0.20;99.90;;;;;;5062382;28;20058;-72
2021/12/16 04:52:14;;;;;;;8.65;4.78;;;0.20;99.90;;;;;;5064124;28;20556;-72
2021/12/16 04:54:40;;;;;;;10.52;4.88;;;0.20;99.90;;;;;;5059560;28;20081;-73
2021/12/16 04:57:06;;;;;;;10.35;4.97;;;0.30;99.90;;;;;;5064436;28;20024;-71
2021/12/16 04:59:34;;;;;;;10.93;5.47;;;0.30;99.90;;;;;;5058383;28;20036;-69
2021/12/16 05:02:17;;;;;;;13.05;6.63;;;0.30;99.90;;;;;;5065240;28;20111;-71
2021/12/16 05:04:43;;;;;;;9.90;4.78;;;0.30;99.90;;;;;;5064615;28;20028;-72
2021/12/16 05:07:10;;;;;;;21.67;9.10;;;0.20;99.90;;;;;;5058368;28;20548;-72
2021/12/16 05:12:12;;;;;;;83.72;35.92;;;0.10;99.90;;;;;;5064419;28;20044;-70
2021/12/16 05:14:38;;;;;;;60.38;28.02;;;0.20;99.90;;;;;;5069612;28;20028;-72
2021/12/16 05:17:21;;;;;;;45.10;20.15;;;0.10;99.90;;;;;;5067772;28;20028;-71
2021/12/16 05:19:51;;;;;;;27.05;13.32;;;0.10;99.90;;;;;;5068127;28;20104;-71
2021/12/16 05:25:07;;;;;;;12.48;6.43;;;0.10;99.90;;;;;;5073166;28;20039;-72
2021/12/16 05:27:32;;;;;;;12.07;5.95;;;0.10;99.90;;;;;;5065775;28;20029;-72
2021/12/16 05:29:58;;;;;;;10.15;5.25;;;0.10;99.90;;;;;;5072039;28;20430;-72
2021/12/16 05:32:24;;;;;;;13.00;6.10;;;0.10;99.90;;;;;;5060913;28;20039;-72
2021/12/16 05:34:50;;;;;;;9.85;5.60;;;0.20;99.90;;;;;;5073126;28;20105;-72
2021/12/16 05:37:15;;;;;;;15.88;6.75;;;0.20;99.90;;;;;;5055744;28;20104;-72
2021/12/16 05:39:42;;;;;;;36.30;13.40;;;0.20;99.90;;;;;;5061410;28;20575;-72
2021/12/16 05:42:07;;;;;;;86.28;28.88;;;0.30;99.90;;;;;;5063816;28;20064;-72
2021/12/16 05:44:33;;;;;;;60.72;21.58;;;0.20;99.90;;;;;;5070313;28;20033;-72
2021/12/16 05:46:59;;;;;;;47.92;16.48;;;0.30;99.90;;;;;;5069417;28;20090;-73
2021/12/16 05:49:25;;;;;;;32.85;12.18;;;0.20;99.90;;;;;;5072003;28;20060;-74
2021/12/16 05:51:51;;;;;;;28.83;11.60;;;0.20;99.90;;;;;;5071146;28;20054;-73
2021/12/16 05:54:18;;;;;;;20.75;8.88;;;0.20;99.90;;;;;;5082378;28;20024;-73
2021/12/16 05:56:46;;;;;;;15.55;7.45;;;0.30;99.90;;;;;;5081568;28;20028;-74
2021/12/16 05:59:13;;;;;;;12.60;6.25;;;0.30;99.90;;;;;;5076267;28;20028;-73
2021/12/16 06:01:41;;;;;;;11.73;6.03;;;0.30;99.90;;;;;;5083598;28;20036;-72
2021/12/16 06:04:08;;;;;;;11.25;5.85;;;0.40;99.90;;;;;;5069908;28;20024;-73
2021/12/16 06:06:33;;;;;;;9.60;5.82;;;0.40;99.90;;;;;;5082104;28;20388;-73
2021/12/16 06:09:00;;;;;;;10.05;5.40;;;0.40;99.90;;;;;;5091380;28;20024;-72
2021/12/16 06:11:30;;;;;;;9.13;5.47;;;0.40;99.90;;;;;;5079030;28;20024;-72
2021/12/16 06:27:40;;;;;;;25.90;11.50;;;0.40;99.90;;;;;;5059961;28;20438;-73
2021/12/16 06:30:09;;;;;;;30.02;13.38;;;0.40;99.90;;;;;;5072371;28;20047;-73
2021/12/16 06:32:35;;;;;;;27.92;13.02;;;0.40;99.90;;;;;;5073227;28;20025;-73
2021/12/16 06:35:02;;;;;;;15.90;7.57;;;0.50;99.90;;;;;;5075128;28;20016;-73
2021/12/16 06:37:28;;;;;;;11.52;6.85;;;0.50;99.90;;;;;;5069666;28;20070;-74
2021/12/16 06:39:53;;;;;;;14.57;7.97;;;0.40;99.90;;;;;;5069055;28;20048;-73
2021/12/16 06:42:19;;;;;;;17.33;7.78;;;0.30;99.90;;;;;;5067398;28;20017;-74
2021/12/16 06:45:23;;;;;;;15.05;7.57;;;0.30;99.90;;;;;;5055736;28;20468;-73
2021/12/16 06:47:44;;;;;;;15.95;7.38;;;0.20;99.90;;;;;;5062518;28;20369;-73
2021/12/16 06:50:14;;;;;;;18.05;9.10;;;0.20;99.90;;;;;;5075941;28;20429;-73
2021/12/16 06:52:46;;;;;;;14.40;6.97;;;0.10;99.90;;;;;;5071495;28;20020;-73
2021/12/16 06:55:37;;;;;;;14.70;7.05;;;0.10;99.90;;;;;;5075330;28;20036;-73
2021/12/16 06:58:28;;;;;;;16.35;7.10;;;0.10;99.90;;;;;;5069182;28;20537;-73
2021/12/16 07:01:06;;;;;;;12.65;6.32;;;0.10;99.90;;;;;;5069918;28;20028;-73
2021/12/16 07:03:45;;;;;;;14.70;7.78;;;0.10;99.90;;;;;;5078267;28;20067;-73
2021/12/16 07:06:12;;;;;;;17.15;8.02;;;0.10;99.90;;;;;;5065725;28;20082;-73
2021/12/16 07:08:39;;;;;;;15.00;7.78;;;0.10;99.90;;;;;;5079578;28;20050;-73
2021/12/16 07:11:05;;;;;;;14.15;7.22;;;0.20;99.90;;;;;;5078040;28;20021;-73
2021/12/16 07:13:37;;;;;;;13.90;6.82;;;0.20;99.90;;;;;;5066462;28;20048;-72
2021/12/16 07:16:04;;;;;;;13.05;6.88;;;0.20;99.90;;;;;;5066345;28;20626;-73
2021/12/16 07:18:30;;;;;;;14.93;7.10;;;0.20;99.90;;;;;;5067924;28;20075;-73
2021/12/16 07:20:56;;;;;;;14.55;7.63;;;0.30;99.90;;;;;;5074276;28;20476;-73
2021/12/16 07:23:23;;;;;;;13.70;6.93;;;0.30;99.90;;;;;;5070544;28;20032;-73
2021/12/16 07:25:48;;;;;;;13.57;7.05;;;0.30;99.90;;;;;;5062340;28;20091;-73
2021/12/16 07:28:15;;;;;;;16.63;8.30;;;0.30;99.90;;;;;;5062804;28;20103;-73
2021/12/16 07:30:43;;;;;;;17.10;8.82;;;0.30;99.90;;;;;;5069167;28;20119;-74
2021/12/16 07:33:09;;;;;;;19.25;9.95;;;0.40;99.90;;;;;;5061350;28;20111;-73
2021/12/16 07:35:37;;;;;;;15.75;7.95;;;0.40;99.90;;;;;;5069005;28;20024;-73
2021/12/16 07:38:04;;;;;;;13.90;7.97;;;0.40;99.90;;;;;;5075026;28;20048;-74
2021/12/16 07:40:31;;;;;;;15.70;7.03;;;0.50;99.90;;;;;;5072056;28;20567;-73
2021/12/16 07:45:31;;;;;;;15.57;7.75;;;0.50;99.90;;;;;;5054599;28;20021;-73
2021/12/16 07:47:57;;;;;;;14.20;7.70;;;0.50;99.90;;;;;;5054103;28;20028;-73
2021/12/16 07:50:23;;;;;;;14.15;7.85;;;0.50;99.90;;;;;;5070875;28;20365;-73
2021/12/16 07:52:50;;;;;;;15.77;8.65;;;0.60;99.90;;;;;;5059490;28;20029;-71
2021/12/16 07:55:17;;;;;;;18.92;10.43;;;0.60;99.90;;;;;;5074360;28;20481;-71
2021/12/16 07:57:43;;;;;;;18.50;10.32;;;0.60;99.90;;;;;;5074364;28;20021;-72
2021/12/16 08:00:15;;;;;;;15.82;9.63;;;0.60;99.90;;;;;;5074659;28;20024;-71
2021/12/16 08:02:41;;;;;;;15.25;9.18;;;0.60;99.90;;;;;;5073275;28;20024;-71
2021/12/16 08:05:08;;;;;;;16.27;8.98;;;0.70;99.90;;;;;;5074271;28;20028;-71
2021/12/16 08:07:35;;;;;;;15.50;8.20;;;0.70;99.90;;;;;;5074502;28;20055;-71
2021/12/16 08:10:00;;;;;;;13.98;8.00;;;0.70;99.90;;;;;;5065279;28;20025;-73
2021/12/16 08:12:26;;;;;;;14.32;7.97;;;0.60;99.90;;;;;;5054246;28;20024;-74
2021/12/16 08:14:52;;;;;;;16.52;8.25;;;0.70;99.90;;;;;;5055928;28;20408;-74
2021/12/16 08:17:18;;;;;;;15.68;7.82;;;0.70;99.90;;;;;;5061042;28;20017;-73
2021/12/16 08:19:45;;;;;;;15.68;8.02;;;0.70;99.90;;;;;;5054283;28;20469;-73
2021/12/16 08:22:12;;;;;;;13.32;7.57;;;0.70;99.90;;;;;;5054293;28;20025;-71
2021/12/16 08:24:38;;;;;;;17.35;8.57;;;0.80;99.90;;;;;;5053911;28;20473;-74
2021/12/16 08:27:04;;;;;;;20.23;8.52;;;0.80;99.90;;;;;;5063959;28;20042;-74
2021/12/16 08:29:30;;;;;;;16.08;8.82;;;0.80;99.90;;;;;;5094236;28;20024;-74
2021/12/16 08:31:56;;;;;;;15.48;7.80;;;0.80;99.90;;;;;;5092953;28;20387;-73
2021/12/16 08:34:23;;;;;;;15.23;8.00;;;0.90;99.90;;;;;;5094026;28;20077;-73
2021/12/16 08:36:49;;;;;;;18.08;8.38;;;0.90;99.90;;;;;;5094182;28;20028;-72
2021/12/16 08:39:15;;;;;;;14.20;7.57;;;0.90;99.90;;;;;;5089096;28;20387;-74
2021/12/16 08:41:45;;;;;;;16.10;7.38;;;0.90;99.90;;;;;;5053658;28;20029;-74
2021/12/16 08:44:11;;;;;;;13.25;6.95;;;1.00;99.90;;;;;;5053918;28;20021;-74
2021/12/16 08:46:40;;;;;;;14.45;7.07;;;0.90;99.90;;;;;;5063160;28;20027;-73
2021/12/16 08:49:07;;;;;;;15.43;7.38;;;0.90;99.90;;;;;;5073792;28;20025;-74
2021/12/16 08:51:40;;;;;;;15.82;7.82;;;1.00;99.90;;;;;;5073850;28;20067;-74
2021/12/16 08:54:06;;;;;;;16.67;7.88;;;1.00;99.90;;;;;;5073615;28;20471;-72
2021/12/16 08:56:31;;;;;;;15.80;8.10;;;1.00;99.90;;;;;;5073514;28;20384;-74
2021/12/16 08:58:59;;;;;;;15.27;7.90;;;1.10;99.90;;;;;;5073320;28;20021;-74
2021/12/16 09:01:28;;;;;;;13.98;6.85;;;1.10;99.90;;;;;;5073559;28;20112;-75
2021/12/16 09:03:56;;;;;;;15.40;7.63;;;1.10;99.90;;;;;;5064240;28;20034;-73
2021/12/16 09:06:22;;;;;;;17.25;9.60;;;1.10;99.90;;;;;;5065362;28;20021;-74
2021/12/16 09:08:49;;;;;;;20.83;11.13;;;1.00;99.90;;;;;;5053501;28;20128;-74
2021/12/16 09:11:22;;;;;;;21.85;11.13;;;1.10;99.90;;;;;;5053387;28;20354;-73
2021/12/16 09:13:50;;;;;;;17.38;9.55;;;1.10;99.90;;;;;;5053192;28;20055;-72
2021/12/16 09:16:20;;;;;;;16.33;8.40;;;1.10;99.90;;;;;;5052979;28;20021;-73
2021/12/16 09:18:46;;;;;;;14.93;8.40;;;1.20;99.90;;;;;;5053447;28;20013;-73
2021/12/16 09:21:19;;;;;;;12.88;7.40;;;1.20;99.90;;;;;;5053491;28;20075;-73
2021/12/16 09:23:50;;;;;;;13.10;6.72;;;1.20;99.90;;;;;;5053688;28;20388;-73
2021/12/16 09:26:16;;;;;;;;;;;1.30;99.90;;;;;;5055896;28;20017;-73
2021/12/16 09:28:42;;;;;;;13.25;6.68;;;1.30;99.90;;;;;;5069217;28;20370;-73
2021/12/16 09:31:12;;;;;;;12.95;6.57;;;1.30;99.90;;;;;;5069652;28;20016;-74
2021/12/16 09:33:50;;;;;;;15.15;7.57;;;1.40;99.90;;;;;;5068161;28;20383;-73
2021/12/16 09:36:20;;;;;;;14.30;7.78;;;1.40;99.90;;;;;;5070327;28;20024;-74
2021/12/16 09:38:47;;;;;;;20.70;11.23;;;1.40;99.90;;;;;;5055598;28;20520;-75
2021/12/16 09:41:13;;;;;;;19.50;8.93;;;1.50;99.90;;;;;;5058014;28;20081;-74
2021/12/16 09:43:45;;;;;;;18.33;9.20;;;1.50;99.90;;;;;;5070501;28;20477;-75
2021/12/16 09:46:15;;;;;;;19.50;8.98;;;1.50;99.90;;;;;;5058622;28;20495;-75
2021/12/16 09:48:41;;;;;;;16.95;8.13;;;1.50;99.90;;;;;;5070354;28;20047;-75
2021/12/16 09:51:10;;;;;;;15.40;7.55;;;1.50;99.90;;;;;;5054525;28;20033;-74
2021/12/16 09:53:38;;;;;;;15.00;7.13;;;1.50;99.90;;;;;;5067646;28;20552;-74
2021/12/16 09:56:09;;;;;;;12.95;6.70;;;1.50;99.90;;;;;;5069809;28;20476;-74
2021/12/16 09:58:39;;;;;;;13.43;6.55;;;1.60;99.90;;;;;;5053573;28;20433;-74
2021/12/16 10:01:09;;;;;;;11.88;6.25;;;1.60;99.90;;;;;;5068818;28;20031;-74
2021/12/16 10:03:36;;;;;;;17.85;8.57;;;1.60;99.90;;;;;;5062867;28;20467;-74
2021/12/16 10:06:02;;;;;;;14.35;6.35;;;1.60;99.90;;;;;;5066014;28;20024;-74
2021/12/16 10:08:29;;;;;;;12.05;5.75;;;1.70;99.90;;;;;;5068611;28;20037;-73
2021/12/16 10:10:55;;;;;;;13.15;6.32;;;1.70;99.90;;;;;;5054545;28;20032;-73
2021/12/16 10:13:31;;;;;;;13.77;7.03;;;1.70;99.90;;;;;;5062206;28;20020;-73
2021/12/16 10:18:28;;;;;;;9.85;5.95;;;1.80;99.90;;;;;;5073046;28;20021;-73
2021/12/16 10:20:58;;;;;;;15.70;7.35;;;1.80;99.90;;;;;;5059656;28;20112;-72
2021/12/16 10:23:31;;;;;;;15.38;7.75;;;1.80;99.90;;;;;;5072824;28;20107;-72
2021/12/16 10:26:07;;;;;;;15.40;7.82;;;1.80;99.90;;;;;;5071123;28;20029;-72
2021/12/16 10:28:42;;;;;;;14.82;7.70;;;1.80;99.90;;;;;;5070248;28;20404;-72
2021/12/16 10:31:22;;;;;;;17.08;8.25;;;1.90;99.90;;;;;;5060180;28;20481;-72
2021/12/16 10:33:58;;;;;;;20.65;8.98;;;1.90;99.90;;;;;;5051746;28;20025;-72
2021/12/16 10:36:38;;;;;;;14.48;7.68;;;1.90;99.90;;;;;;5053590;28;20396;-72
2021/12/16 10:39:17;;;;;;;14.15;7.15;;;2.00;99.90;;;;;;5053554;28;20100;-73
2021/12/16 10:41:49;;;;;;;14.07;7.50;;;2.00;99.90;;;;;;5063833;28;20127;-72
2021/12/16 10:44:18;;;;;;;14.13;7.82;;;2.00;99.90;;;;;;5072724;28;20029;-72
2021/12/16 10:46:54;;;;;;;14.57;7.32;;;2.10;99.90;;;;;;5066922;28;20021;-71
2021/12/16 10:49:25;;;;;;;15.45;7.35;;;2.10;99.90;;;;;;5056110;28;20539;-72
2021/12/16 10:51:59;;;;;;;13.30;7.38;;;2.10;99.90;;;;;;5072569;28;20461;-72
2021/12/16 10:54:28;;;;;;;14.93;7.45;;;2.20;99.90;;;;;;5075601;28;20029;-72
2021/12/16 10:56:56;;;;;;;15.73;7.13;;;2.20;99.90;;;;;;5061706;28;20044;-73
2021/12/16 10:59:37;;;;;;;13.98;7.07;;;2.20;99.90;;;;;;5060162;28;20083;-74
2021/12/16 11:02:12;;;;;;;18.50;8.98;;;2.20;99.90;;;;;;5059769;28;20440;-73
2021/12/16 11:04:47;;;;;;;21.30;9.13;;;2.20;99.90;;;;;;5057905;28;20029;-75
2021/12/16 11:07:31;;;;;;;17.77;8.52;;;2.10;99.90;;;;;;5058577;28;20059;-75
2021/12/16 11:10:14;;;;;;;18.80;8.25;;;2.10;99.90;;;;;;5060394;28;20532;-75
2021/12/16 11:12:55;;;;;;;15.85;7.85;;;2.10;99.90;;;;;;5065427;28;20032;-75
2021/12/16 11:15:29;;;;;;;;;;;2.10;99.90;;;;;;5058133;28;20033;-74
2021/12/16 11:18:02;;;;;;;18.40;7.85;;;2.10;99.90;;;;;;5061242;28;20012;-75
2021/12/16 11:20:39;;;;;;;18.52;8.60;;;2.10;99.90;;;;;;5060621;28;20039;-74
2021/12/16 11:23:14;;;;;;;16.38;8.52;;;2.20;99.90;;;;;;5062732;28;20032;-75
2021/12/16 11:25:41;;;;;;;20.20;8.32;;;2.20;99.90;;;;;;5064544;28;20354;-75
2021/12/16 11:28:13;;;;;;;16.25;8.57;;;2.30;99.90;;;;;;5065456;28;20041;-74
2021/12/16 11:30:58;;;;;;;18.92;8.60;;;2.30;99.90;;;;;;5060715;28;20054;-75
2021/12/16 11:33:32;;;;;;;15.23;7.97;;;2.40;99.90;;;;;;5060082;28;20506;-74
2021/12/16 11:36:08;;;;;;;13.80;7.90;;;2.40;99.90;;;;;;5060980;28;20021;-75
2021/12/16 11:38:37;;;;;;;15.48;8.10;;;2.40;99.90;;;;;;5073683;28;20016;-74
2021/12/16 11:41:15;;;;;;;17.67;8.40;;;2.40;99.90;;;;;;5057465;28;20087;-74
2021/12/16 11:43:53;;;;;;;15.93;8.15;;;2.40;99.90;;;;;;5059693;28;20385;-74
2021/12/16 11:46:39;;;;;;;15.52;8.32;;;2.50;99.90;;;;;;5062801;28;20533;-74
2021/12/16 11:49:10;;;;;;;15.73;8.50;;;2.50;99.90;;;;;;5067166;28;20041;-74
2021/12/16 11:51:38;;;;;;;;;;;2.50;99.90;;;;;;5066149;28;20060;-74
2021/12/16 11:54:18;;;;;;;12.85;7.63;;;2.50;99.90;;;;;;5055715;28;19940;-74
2021/12/16 11:56:49;;;;;;;13.90;7.53;;;2.50;99.90;;;;;;5057677;28;20021;-74
2021/12/16 11:59:30;;;;;;;;;;;2.60;99.90;;;;;;5070794;28;20115;-74
2021/12/16 12:01:58;;;;;;;65.80;27.70;;;2.60;99.90;;;;;;5063228;28;19913;-74
2021/12/16 12:04:31;;;;;;;67.65;31.25;;;2.60;99.90;;;;;;5055731;28;20116;-74
2021/12/16 12:06:58;;;;;;;56.92;24.67;;;2.70;99.90;;;;;;5069304;28;20028;-74
2021/12/16 12:09:38;;;;;;;44.28;20.17;;;2.60;99.90;;;;;;5067868;28;20366;-74
2021/12/16 12:12:05;;;;;;;21.95;10.80;;;2.60;99.90;;;;;;5061629;28;20075;-74
2021/12/16 12:14:34;;;;;;;19.23;10.30;;;2.60;99.90;;;;;;5055478;28;20027;-74
2021/12/16 12:17:10;;;;;;;18.05;9.20;;;2.60;99.90;;;;;;5061152;28;20016;-74
2021/12/16 12:19:43;;;;;;;15.68;8.52;;;2.50;99.90;;;;;;5066228;28;20556;-74
2021/12/16 12:22:09;;;;;;;14.80;8.10;;;2.50;99.90;;;;;;5068791;28;20042;-75
2021/12/16 12:24:40;;;;;;;20.38;9.65;;;2.50;99.90;;;;;;5063870;28;20029;-74
2021/12/16 12:27:09;;;;;;;19.48;9.57;;;2.50;99.90;;;;;;5069009;28;20059;-75
2021/12/16 12:29:37;;;;;;;17.73;9.32;;;2.50;99.90;;;;;;5067415;28;20052;-74
2021/12/16 12:32:08;;;;;;;23.65;11.20;;;2.50;99.90;;;;;;5074951;28;20028;-74
2021/12/16 12:34:37;;;;;;;15.95;9.45;;;2.50;99.90;;;;;;5068566;28;20033;-74
2021/12/16 12:37:08;;;;;;;14.77;8.75;;;2.50;99.90;;;;;;5076280;28;20031;-74
2021/12/16 12:39:39;;;;;;;20.10;10.57;;;2.50;99.90;;;;;;5070355;28;20032;-75
2021/12/16 12:42:06;;;;;;;17.85;9.32;;;2.50;99.90;;;;;;5064464;28;20430;-74
2021/12/16 12:44:32;;;;;;;16.77;8.65;;;2.50;99.90;;;;;;5061645;28;20028;-75
2021/12/16 12:47:04;;;;;;;18.25;8.75;;;2.50;99.90;;;;;;5061618;28;20032;-73
2021/12/16 12:49:30;;;;;;;15.18;7.78;;;2.50;99.90;;;;;;5068378;28;20036;-73
2021/12/16 12:52:23;;;;;;;17.23;8.18;;;2.50;99.90;;;;;;5062145;28;20023;-74
2021/12/16 12:55:08;;;;;;;15.40;8.30;;;2.50;99.90;;;;;;5063217;28;20028;-73
2021/12/16 12:57:35;;;;;;;15.23;9.02;;;2.50;99.90;;;;;;5055706;28;20016;-73
2021/12/16 13:00:23;;;;;;;16.70;8.88;;;2.50;99.90;;;;;;5062615;28;20071;-72
2021/12/16 13:03:01;;;;;;;19.75;10.07;;;2.50;99.90;;;;;;5048709;28;20082;-73
2021/12/16 13:05:28;;;;;;;16.15;7.60;;;2.50;99.90;;;;;;5061775;28;20476;-73
2021/12/16 13:08:00;;;;;;;16.65;8.15;;;2.50;99.90;;;;;;5064075;28;20036;-73
2021/12/16 13:10:56;;;;;;;20.67;12.93;;;2.50;99.90;;;;;;5069879;28;20043;-73
2021/12/16 13:16:11;;;;;;;21.17;9.77;;;2.40;99.90;;;;;;5052546;28;20416;-73
2021/12/16 13:24:30;;;;;;;22.15;10.07;;;2.40;99.90;;;;;;5054524;28;20460;-74
2021/12/16 13:30:15;;;;;;;18.55;9.90;;;2.30;99.90;;;;;;5053315;28;19916;-73
2021/12/16 13:32:49;;;;;;;18.20;9.48;;;2.30;99.90;;;;;;5063781;28;20028;-73
2021/12/16 13:37:56;;;;;;;21.38;11.13;;;2.30;99.90;;;;;;5062388;28;20032;-73
2021/12/16 13:40:25;;;;;;;15.20;8.45;;;2.30;99.90;;;;;;5060545;28;20031;-73
2021/12/16 13:42:58;;;;;;;16.88;8.02;;;2.30;99.90;;;;;;5063021;28;20100;-73
2021/12/16 13:45:31;;;;;;;16.73;8.77;;;2.30;99.90;;;;;;5062394;28;20036;-73
2021/12/16 14:02:14;;;;;;;17.27;8.75;;;2.20;99.90;;;;;;5045607;28;20041;-73
2021/12/16 14:10:05;;;;;;;23.20;13.50;;;2.20;99.90;;;;;;5064298;28;20609;-73
2021/12/16 14:18:09;;;;;;;17.90;10.00;;;2.20;99.90;;;;;;5049866;28;20029;-72
2021/12/16 14:24:00;;;;;;;19.85;9.75;;;2.10;99.90;;;;;;5056437;28;20139;-73
2021/12/16 14:26:43;;;;;;;16.65;9.23;;;2.10;99.90;;;;;;5066826;28;20387;-72
2021/12/16 14:35:02;;;;;;;19.50;9.55;;;2.00;99.90;;;;;;5001791;28;20026;-73
2021/12/16 14:37:49;;;;;;;14.82;8.30;;;2.00;99.90;;;;;;5063781;28;20024;-73
2021/12/16 14:40:51;;;;;;;15.45;8.57;;;1.90;99.90;;;;;;5060487;28;20039;-73
2021/12/16 14:43:30;;;;;;;16.70;9.30;;;1.90;99.90;;;;;;5062932;28;20049;-73
2021/12/16 14:46:02;;;;;;;21.48;11.32;;;1.90;99.90;;;;;;5071007;28;20035;-73
2021/12/16 14:48:32;;;;;;;26.60;12.80;;;1.90;99.90;;;;;;5076713;28;20439;-73
2021/12/16 14:51:15;;;;;;;32.88;14.35;;;1.90;99.90;;;;;;5056700;28;20037;-73
2021/12/16 14:53:46;;;;;;;39.22;17.75;;;1.90;99.90;;;;;;5059403;28;20024;-73
2021/12/16 14:56:28;;;;;;;39.13;17.63;;;1.80;99.90;;;;;;5055982;28;20075;-73
2021/12/16 14:58:57;;;;;;;30.95;14.10;;;1.80;99.90;;;;;;5072181;28;20017;-73
2021/12/16 15:01:31;;;;;;;25.42;14.20;;;1.80;99.90;;;;;;5067032;28;20036;-73
2021/12/16 15:03:58;;;;;;;21.02;11.05;;;1.90;99.90;;;;;;5075378;28;20033;-73
2021/12/16 15:06:33;;;;;;;20.13;9.45;;;1.80;99.90;;;;;;5059533;28;20100;-73
2021/12/16 15:09:12;;;;;;;18.25;8.90;;;1.80;99.90;;;;;;5067540;28;20043;-73
2021/12/16 15:11:51;;;;;;;17.10;8.07;;;1.80;99.90;;;;;;5062827;28;20051;-72
2021/12/16 15:17:23;;;;;;;16.65;8.82;;;1.70;99.90;;;;;;5065065;28;20033;-72
2021/12/16 15:45:23;;;;;;;16.13;8.63;;;1.60;99.90;;;;;;5073335;28;20043;-72
2021/12/16 15:48:15;;;;;;;14.70;7.88;;;1.50;99.90;;;;;;5054782;28;20760;-72
2021/12/16 15:50:49;;;;;;;12.25;6.68;;;1.50;99.90;;;;;;5054482;28;20090;-73
2021/12/16 15:53:19;;;;;;;13.00;6.63;;;1.50;99.90;;;;;;5055273;28;20028;-72
2021/12/16 15:55:59;;;;;;;13.45;6.97;;;1.50;99.90;;;;;;5054850;28;20029;-73
2021/12/16 15:58:33;;;;;;;13.77;7.07;;;1.50;99.90;;;;;;5056671;28;20036;-73
2021/12/16 16:01:12;;;;;;;13.30;6.65;;;1.40;99.90;;;;;;5072636;28;20021;-73
2021/12/16 16:03:40;;;;;;;14.50;7.97;;;1.40;99.90;;;;;;5072122;28;20032;-73
2021/12/16 16:06:09;;;;;;;25.45;13.85;;;1.40;99.90;;;;;;5063620;28;20059;-72
2021/12/16 16:08:39;;;;;;;32.53;17.17;;;1.40;99.90;;;;;;5054572;28;20078;-73
2021/12/16 16:11:12;;;;;;;28.67;15.25;;;1.40;99.90;;;;;;5056575;28;20074;-73
2021/12/16 16:13:52;;;;;;;26.30;13.80;;;1.30;99.90;;;;;;5060331;28;20025;-73
2021/12/16 16:16:21;;;;;;;22.40;12.00;;;1.40;99.90;;;;;;5067450;28;20017;-73
2021/12/16 16:18:55;;;;;;;24.13;11.45;;;1.30;99.90;;;;;;5067049;28;20032;-73
2021/12/16 16:21:35;;;;;;;22.40;10.57;;;1.30;99.90;;;;;;5054279;28;20028;-73
2021/12/16 16:24:09;;;;;;;19.98;9.88;;;1.30;99.90;;;;;;5055626;28;20372;-73
2021/12/16 16:26:38;;;;;;;16.23;8.48;;;1.30;99.90;;;;;;5053879;28;20025;-72
2021/12/16 16:29:08;;;;;;;16.05;8.23;;;1.30;99.90;;;;;;5052930;28;20036;-73
2021/12/16 16:31:36;;;;;;;16.50;8.38;;;1.30;99.90;;;;;;5057709;28;20033;-72
2021/12/16 16:34:22;;;;;;;15.30;7.70;;;1.30;99.90;;;;;;5054849;28;20106;-73
2021/12/16 16:36:52;;;;;;;12.40;7.38;;;1.30;99.90;;;;;;5053629;28;20024;-73
2021/12/16 16:39:22;;;;;;;12.68;7.10;;;1.30;99.90;;;;;;5053946;28;20466;-73
2021/12/16 16:42:01;;;;;;;12.13;7.18;;;1.30;99.90;;;;;;5072164;28;20033;-73
2021/12/16 16:44:30;;;;;;;14.68;7.90;;;1.30;99.90;;;;;;5066954;28;20056;-73
2021/12/16 16:47:01;;;;;;;15.80;7.68;;;1.40;99.90;;;;;;5063020;28;20035;-73
2021/12/16 16:49:35;;;;;;;23.52;9.52;;;1.40;99.90;;;;;;5084820;28;20082;-73
2021/12/16 16:52:05;;;;;;;18.15;7.57;;;1.40;99.90;;;;;;5064435;28;20025;-73
2021/12/16 16:54:34;;;;;;;17.58;8.18;;;1.40;99.90;;;;;;5053446;28;20025;-73
2021/12/16 16:57:08;;;;;;;15.63;9.23;;;1.40;99.90;;;;;;5056484;28;20057;-73
2021/12/16 16:59:39;;;;;;;20.52;10.65;;;1.40;99.90;;;;;;5062226;28;20511;-73
2021/12/16 17:02:35;;;;;;;16.33;9.27;;;1.40;99.90;;;;;;5059242;28;20031;-73